Decoded Metar for YCIN (CURTIN/DERBY in _UNIDENTIFIED) (IATA:N/A) | Meteo·Mobile Aviation Weather
aviador You're here:

YCIN Decoded Metar

CURTIN/DERBY in _UNIDENTIFIED
Report Time2018-08-20 01:00:00
UTC Time2018-08-20 01:26:26
Flight Rules vfr VFR
Wind070° at 11 kt
W.Decomp.*RWY 11: 8.2 kt HW 7.4 kt LCW
W.Rank070° ranks 30
Current wind is above 070° avg. (6.4)
Visibility9999 m
Phenomena:N/A
Clouds:N/A
Expected CloudBase > 12,400 ft AGL from Temp-Dew spread
CeilingNone
Temp28°C (ISA +14)
Dew Point-3°C (13% RH)
Heat Index26.6°C
AAT21.7°C
QNH1017 hPa
Density Alt1,804 ft
Elevation299 ft
Report Wrong Elevation
Raw Report
YCIN 200100Z AUTO 07011KT 9999 // NCD 28/M03 Q1017=

Extra information for YCIN:More info

Metar Taf Metar & Taf Last 4 Metars F.Rules Stats Wind Profile Meteogram Temp Stats Airport Information Weather charts Add Link Nearby VenuesMetar ALERT Operation Metar Decoded Social comments